sensor_id;sensor_type;location;lat;lon;timestamp;P1;durP1;ratioP1;P2;durP2;ratioP2
20751;SDS011;10536;51.582;5.016;2022-09-23T00:03:01;21.40;;;7.82;;
20751;SDS011;10536;51.582;5.016;2022-09-23T00:08:02;10.60;;;7.93;;
20751;SDS011;10536;51.582;5.016;2022-09-23T00:13:04;14.70;;;8.13;;
20751;SDS011;10536;51.582;5.016;2022-09-23T00:18:05;11.52;;;7.63;;
20751;SDS011;10536;51.582;5.016;2022-09-23T00:23:07;14.77;;;8.13;;
20751;SDS011;10536;51.582;5.016;2022-09-23T00:28:07;16.05;;;7.70;;
20751;SDS011;10536;51.582;5.016;2022-09-23T00:33:08;8.93;;;7.00;;
20751;SDS011;10536;51.582;5.016;2022-09-23T00:38:08;11.50;;;7.53;;
20751;SDS011;10536;51.582;5.016;2022-09-23T00:43:10;12.10;;;7.32;;
20751;SDS011;10536;51.582;5.016;2022-09-23T00:48:14;13.20;;;6.82;;
20751;SDS011;10536;51.582;5.016;2022-09-23T00:53:20;8.18;;;6.82;;
20751;SDS011;10536;51.582;5.016;2022-09-23T00:58:24;11.02;;;7.25;;
20751;SDS011;10536;51.582;5.016;2022-09-23T01:03:27;9.52;;;6.82;;
20751;SDS011;10536;51.582;5.016;2022-09-23T01:08:28;11.80;;;7.05;;
20751;SDS011;10536;51.582;5.016;2022-09-23T01:40:18;9.70;;;7.57;;
20751;SDS011;10536;51.582;5.016;2022-09-23T01:45:39;13.80;;;7.03;;
20751;SDS011;10536;51.582;5.016;2022-09-23T01:50:46;9.63;;;7.45;;
20751;SDS011;10536;51.582;5.016;2022-09-23T01:55:55;11.57;;;8.50;;
20751;SDS011;10536;51.582;5.016;2022-09-23T02:01:02;13.50;;;8.02;;
20751;SDS011;10536;51.582;5.016;2022-09-23T02:06:08;14.77;;;8.18;;
20751;SDS011;10536;51.582;5.016;2022-09-23T02:11:13;10.50;;;8.30;;
20751;SDS011;10536;51.582;5.016;2022-09-23T02:16:18;8.35;;;7.57;;
20751;SDS011;10536;51.582;5.016;2022-09-23T02:21:26;12.45;;;7.93;;
20751;SDS011;10536;51.582;5.016;2022-09-23T02:26:34;10.75;;;7.53;;
20751;SDS011;10536;51.582;5.016;2022-09-23T02:31:55;11.02;;;8.10;;
20751;SDS011;10536;51.582;5.016;2022-09-23T02:37:04;10.77;;;8.02;;
20751;SDS011;10536;51.582;5.016;2022-09-23T02:42:14;10.73;;;8.15;;
20751;SDS011;10536;51.582;5.016;2022-09-23T02:47:21;9.27;;;8.18;;
20751;SDS011;10536;51.582;5.016;2022-09-23T02:52:26;14.85;;;9.02;;
20751;SDS011;10536;51.582;5.016;2022-09-23T02:57:27;15.13;;;8.77;;
20751;SDS011;10536;51.582;5.016;2022-09-23T03:24:12;16.48;;;11.40;;
20751;SDS011;10536;51.582;5.016;2022-09-23T03:29:14;14.82;;;10.75;;
20751;SDS011;10536;51.582;5.016;2022-09-23T03:34:19;13.25;;;11.30;;
20751;SDS011;10536;51.582;5.016;2022-09-23T03:44:27;16.00;;;12.40;;
20751;SDS011;10536;51.582;5.016;2022-09-23T03:49:28;17.73;;;12.38;;
20751;SDS011;10536;51.582;5.016;2022-09-23T03:54:34;29.38;;;13.93;;
20751;SDS011;10536;51.582;5.016;2022-09-23T03:59:34;23.15;;;14.57;;
20751;SDS011;10536;51.582;5.016;2022-09-23T04:04:36;20.92;;;13.32;;
20751;SDS011;10536;51.582;5.016;2022-09-23T04:09:37;18.92;;;14.25;;
20751;SDS011;10536;51.582;5.016;2022-09-23T04:14:38;20.40;;;15.55;;
20751;SDS011;10536;51.582;5.016;2022-09-23T04:19:38;16.80;;;13.87;;
20751;SDS011;10536;51.582;5.016;2022-09-23T04:24:39;18.95;;;13.82;;
20751;SDS011;10536;51.582;5.016;2022-09-23T04:29:40;23.38;;;14.80;;
20751;SDS011;10536;51.582;5.016;2022-09-23T04:34:41;23.05;;;14.68;;
20751;SDS011;10536;51.582;5.016;2022-09-23T04:39:41;21.35;;;14.32;;
20751;SDS011;10536;51.582;5.016;2022-09-23T04:44:42;19.38;;;13.88;;
20751;SDS011;10536;51.582;5.016;2022-09-23T04:49:42;21.25;;;14.15;;
20751;SDS011;10536;51.582;5.016;2022-09-23T04:54:43;19.90;;;13.93;;
20751;SDS011;10536;51.582;5.016;2022-09-23T04:59:43;16.90;;;13.13;;
20751;SDS011;10536;51.582;5.016;2022-09-23T05:04:44;23.90;;;15.43;;
20751;SDS011;10536;51.582;5.016;2022-09-23T05:09:44;25.55;;;15.32;;
20751;SDS011;10536;51.582;5.016;2022-09-23T05:14:45;29.63;;;16.45;;
20751;SDS011;10536;51.582;5.016;2022-09-23T05:19:45;29.83;;;18.33;;
20751;SDS011;10536;51.582;5.016;2022-09-23T05:24:46;26.57;;;17.03;;
20751;SDS011;10536;51.582;5.016;2022-09-23T05:29:46;26.02;;;17.25;;
20751;SDS011;10536;51.582;5.016;2022-09-23T05:34:48;21.00;;;16.30;;
20751;SDS011;10536;51.582;5.016;2022-09-23T05:39:48;25.25;;;17.05;;
20751;SDS011;10536;51.582;5.016;2022-09-23T05:44:48;24.43;;;16.97;;
20751;SDS011;10536;51.582;5.016;2022-09-23T05:49:49;20.95;;;16.08;;
20751;SDS011;10536;51.582;5.016;2022-09-23T05:54:49;33.57;;;15.77;;
20751;SDS011;10536;51.582;5.016;2022-09-23T05:59:50;25.23;;;16.70;;
20751;SDS011;10536;51.582;5.016;2022-09-23T06:04:50;20.27;;;15.80;;
20751;SDS011;10536;51.582;5.016;2022-09-23T06:09:51;22.30;;;15.90;;
20751;SDS011;10536;51.582;5.016;2022-09-23T06:14:52;19.73;;;15.43;;
20751;SDS011;10536;51.582;5.016;2022-09-23T06:19:53;20.70;;;15.77;;
20751;SDS011;10536;51.582;5.016;2022-09-23T06:24:53;20.20;;;15.10;;
20751;SDS011;10536;51.582;5.016;2022-09-23T06:29:54;22.23;;;15.37;;
20751;SDS011;10536;51.582;5.016;2022-09-23T06:34:54;23.95;;;15.68;;
20751;SDS011;10536;51.582;5.016;2022-09-23T06:39:55;18.70;;;15.27;;
20751;SDS011;10536;51.582;5.016;2022-09-23T06:44:56;20.70;;;15.20;;
20751;SDS011;10536;51.582;5.016;2022-09-23T06:49:56;24.00;;;16.17;;
20751;SDS011;10536;51.582;5.016;2022-09-23T06:54:56;22.00;;;15.57;;
20751;SDS011;10536;51.582;5.016;2022-09-23T06:59:57;22.83;;;14.50;;
20751;SDS011;10536;51.582;5.016;2022-09-23T07:04:58;23.13;;;14.38;;
20751;SDS011;10536;51.582;5.016;2022-09-23T07:09:58;20.92;;;14.80;;
20751;SDS011;10536;51.582;5.016;2022-09-23T07:14:59;21.98;;;14.85;;
20751;SDS011;10536;51.582;5.016;2022-09-23T07:19:59;17.83;;;13.25;;
20751;SDS011;10536;51.582;5.016;2022-09-23T07:25:01;23.73;;;14.48;;
20751;SDS011;10536;51.582;5.016;2022-09-23T07:30:01;17.58;;;13.00;;
20751;SDS011;10536;51.582;5.016;2022-09-23T07:35:02;14.13;;;12.02;;
20751;SDS011;10536;51.582;5.016;2022-09-23T07:40:03;18.90;;;11.82;;
20751;SDS011;10536;51.582;5.016;2022-09-23T07:45:04;19.55;;;11.77;;
20751;SDS011;10536;51.582;5.016;2022-09-23T07:50:07;16.10;;;11.38;;
20751;SDS011;10536;51.582;5.016;2022-09-23T07:55:10;13.80;;;11.68;;
20751;SDS011;10536;51.582;5.016;2022-09-23T08:00:11;20.25;;;12.23;;
20751;SDS011;10536;51.582;5.016;2022-09-23T08:05:12;17.05;;;12.43;;
20751;SDS011;10536;51.582;5.016;2022-09-23T08:10:13;21.23;;;12.90;;
20751;SDS011;10536;51.582;5.016;2022-09-23T08:15:15;16.95;;;11.65;;
20751;SDS011;10536;51.582;5.016;2022-09-23T08:20:16;14.60;;;11.70;;
20751;SDS011;10536;51.582;5.016;2022-09-23T08:25:37;17.88;;;11.82;;
20751;SDS011;10536;51.582;5.016;2022-09-23T08:30:37;19.08;;;11.20;;
20751;SDS011;10536;51.582;5.016;2022-09-23T08:35:38;13.48;;;11.25;;
20751;SDS011;10536;51.582;5.016;2022-09-23T08:40:40;16.17;;;10.77;;
20751;SDS011;10536;51.582;5.016;2022-09-23T08:45:42;14.90;;;10.83;;
20751;SDS011;10536;51.582;5.016;2022-09-23T08:50:49;13.98;;;9.63;;
20751;SDS011;10536;51.582;5.016;2022-09-23T08:55:55;16.20;;;9.45;;
20751;SDS011;10536;51.582;5.016;2022-09-23T09:01:03;12.35;;;9.23;;
20751;SDS011;10536;51.582;5.016;2022-09-23T09:06:14;10.35;;;8.25;;
20751;SDS011;10536;51.582;5.016;2022-09-23T09:11:17;10.93;;;8.05;;
20751;SDS011;10536;51.582;5.016;2022-09-23T09:21:44;7.20;;;6.50;;
20751;SDS011;10536;51.582;5.016;2022-09-23T09:26:46;9.35;;;7.05;;
20751;SDS011;10536;51.582;5.016;2022-09-23T09:31:48;13.20;;;7.20;;
20751;SDS011;10536;51.582;5.016;2022-09-23T09:37:03;13.90;;;7.80;;
20751;SDS011;10536;51.582;5.016;2022-09-23T09:42:05;8.45;;;7.57;;
20751;SDS011;10536;51.582;5.016;2022-09-23T09:52:31;7.72;;;6.55;;
20751;SDS011;10536;51.582;5.016;2022-09-23T09:57:35;11.10;;;6.30;;
20751;SDS011;10536;51.582;5.016;2022-09-23T10:02:41;8.85;;;6.13;;
20751;SDS011;10536;51.582;5.016;2022-09-23T10:07:41;10.50;;;6.85;;
20751;SDS011;10536;51.582;5.016;2022-09-23T10:12:43;13.03;;;6.60;;
20751;SDS011;10536;51.582;5.016;2022-09-23T10:17:48;9.23;;;5.72;;
20751;SDS011;10536;51.582;5.016;2022-09-23T10:22:50;5.38;;;4.90;;
20751;SDS011;10536;51.582;5.016;2022-09-23T10:27:52;6.40;;;4.97;;
20751;SDS011;10536;51.582;5.016;2022-09-23T10:32:53;13.57;;;5.53;;
20751;SDS011;10536;51.582;5.016;2022-09-23T10:37:56;8.25;;;5.30;;
20751;SDS011;10536;51.582;5.016;2022-09-23T10:43:01;5.80;;;5.05;;
20751;SDS011;10536;51.582;5.016;2022-09-23T10:49:24;7.07;;;5.57;;
20751;SDS011;10536;51.582;5.016;2022-09-23T11:05:05;6.75;;;5.97;;
20751;SDS011;10536;51.582;5.016;2022-09-23T11:37:09;9.13;;;4.70;;
20751;SDS011;10536;51.582;5.016;2022-09-23T11:42:16;9.02;;;4.30;;
20751;SDS011;10536;51.582;5.016;2022-09-23T11:47:23;6.80;;;4.10;;
20751;SDS011;10536;51.582;5.016;2022-09-23T11:52:32;7.55;;;4.22;;
20751;SDS011;10536;51.582;5.016;2022-09-23T11:57:44;6.63;;;4.47;;
20751;SDS011;10536;51.582;5.016;2022-09-23T12:13:33;10.70;;;4.15;;
20751;SDS011;10536;51.582;5.016;2022-09-23T12:29:04;10.88;;;5.18;;
20751;SDS011;10536;51.582;5.016;2022-09-23T12:34:18;5.85;;;4.38;;
20751;SDS011;10536;51.582;5.016;2022-09-23T12:39:23;9.73;;;5.38;;
20751;SDS011;10536;51.582;5.016;2022-09-23T12:49:40;9.88;;;5.97;;
20751;SDS011;10536;51.582;5.016;2022-09-23T13:00:28;15.30;;;6.37;;
20751;SDS011;10536;51.582;5.016;2022-09-23T13:05:20;13.43;;;6.65;;
20751;SDS011;10536;51.582;5.016;2022-09-23T13:10:47;7.35;;;6.28;;
20751;SDS011;10536;51.582;5.016;2022-09-23T13:15:49;12.82;;;7.07;;
20751;SDS011;10536;51.582;5.016;2022-09-23T13:20:51;10.60;;;6.95;;
20751;SDS011;10536;51.582;5.016;2022-09-23T13:26:00;17.70;;;7.43;;
20751;SDS011;10536;51.582;5.016;2022-09-23T13:31:12;13.73;;;7.95;;
20751;SDS011;10536;51.582;5.016;2022-09-23T13:36:16;11.27;;;7.57;;
20751;SDS011;10536;51.582;5.016;2022-09-23T13:41:21;15.38;;;7.55;;
20751;SDS011;10536;51.582;5.016;2022-09-23T13:46:28;14.02;;;7.40;;
20751;SDS011;10536;51.582;5.016;2022-09-23T13:51:32;10.82;;;6.68;;
20751;SDS011;10536;51.582;5.016;2022-09-23T13:56:34;11.70;;;6.75;;
20751;SDS011;10536;51.582;5.016;2022-09-23T14:01:35;15.77;;;6.57;;
20751;SDS011;10536;51.582;5.016;2022-09-23T14:06:36;12.83;;;8.00;;
20751;SDS011;10536;51.582;5.016;2022-09-23T14:11:40;11.23;;;6.43;;
20751;SDS011;10536;51.582;5.016;2022-09-23T14:16:40;15.52;;;7.03;;
20751;SDS011;10536;51.582;5.016;2022-09-23T14:21:53;14.73;;;7.45;;
20751;SDS011;10536;51.582;5.016;2022-09-23T14:26:56;11.52;;;6.45;;
20751;SDS011;10536;51.582;5.016;2022-09-23T14:32:00;12.43;;;6.65;;
20751;SDS011;10536;51.582;5.016;2022-09-23T14:42:57;12.18;;;6.70;;
20751;SDS011;10536;51.582;5.016;2022-09-23T14:48:04;12.13;;;6.95;;
20751;SDS011;10536;51.582;5.016;2022-09-23T14:58:22;10.43;;;6.50;;
20751;SDS011;10536;51.582;5.016;2022-09-23T15:03:29;14.00;;;7.38;;
20751;SDS011;10536;51.582;5.016;2022-09-23T15:08:30;9.38;;;6.57;;
20751;SDS011;10536;51.582;5.016;2022-09-23T15:13:35;12.85;;;6.97;;
20751;SDS011;10536;51.582;5.016;2022-09-23T15:18:39;13.50;;;6.82;;
20751;SDS011;10536;51.582;5.016;2022-09-23T15:29:08;10.40;;;6.53;;
20751;SDS011;10536;51.582;5.016;2022-09-23T15:34:09;14.82;;;6.65;;
20751;SDS011;10536;51.582;5.016;2022-09-23T15:39:09;12.07;;;6.97;;
20751;SDS011;10536;51.582;5.016;2022-09-23T15:44:12;8.23;;;6.78;;
20751;SDS011;10536;51.582;5.016;2022-09-23T15:49:21;11.50;;;6.32;;
20751;SDS011;10536;51.582;5.016;2022-09-23T15:54:26;9.73;;;6.45;;
20751;SDS011;10536;51.582;5.016;2022-09-23T15:59:27;10.27;;;6.85;;
20751;SDS011;10536;51.582;5.016;2022-09-23T16:04:30;10.65;;;6.45;;
20751;SDS011;10536;51.582;5.016;2022-09-23T16:09:30;11.68;;;6.47;;
20751;SDS011;10536;51.582;5.016;2022-09-23T16:14:31;14.68;;;7.22;;
20751;SDS011;10536;51.582;5.016;2022-09-23T16:19:31;17.77;;;7.35;;
20751;SDS011;10536;51.582;5.016;2022-09-23T16:24:33;9.70;;;6.75;;
20751;SDS011;10536;51.582;5.016;2022-09-23T16:29:33;15.95;;;8.05;;
20751;SDS011;10536;51.582;5.016;2022-09-23T16:34:34;9.50;;;7.18;;
20751;SDS011;10536;51.582;5.016;2022-09-23T16:39:34;13.15;;;7.68;;
20751;SDS011;10536;51.582;5.016;2022-09-23T16:44:35;15.73;;;7.27;;
20751;SDS011;10536;51.582;5.016;2022-09-23T16:49:36;10.00;;;6.82;;
20751;SDS011;10536;51.582;5.016;2022-09-23T16:54:37;11.80;;;7.20;;
20751;SDS011;10536;51.582;5.016;2022-09-23T16:59:38;8.90;;;8.00;;
20751;SDS011;10536;51.582;5.016;2022-09-23T17:04:57;16.27;;;7.88;;
20751;SDS011;10536;51.582;5.016;2022-09-23T17:10:00;13.90;;;8.43;;
20751;SDS011;10536;51.582;5.016;2022-09-23T17:15:04;14.05;;;9.68;;
20751;SDS011;10536;51.582;5.016;2022-09-23T17:20:06;14.77;;;9.57;;
20751;SDS011;10536;51.582;5.016;2022-09-23T17:25:07;18.42;;;11.00;;
20751;SDS011;10536;51.582;5.016;2022-09-23T17:30:08;14.90;;;10.70;;
20751;SDS011;10536;51.582;5.016;2022-09-23T17:35:09;15.50;;;11.00;;
20751;SDS011;10536;51.582;5.016;2022-09-23T17:40:10;19.75;;;11.95;;
20751;SDS011;10536;51.582;5.016;2022-09-23T17:45:11;18.58;;;12.80;;
20751;SDS011;10536;51.582;5.016;2022-09-23T17:50:12;17.50;;;13.23;;
20751;SDS011;10536;51.582;5.016;2022-09-23T17:55:13;24.17;;;13.85;;
20751;SDS011;10536;51.582;5.016;2022-09-23T18:00:15;16.20;;;13.90;;
20751;SDS011;10536;51.582;5.016;2022-09-23T18:05:16;19.63;;;14.15;;
20751;SDS011;10536;51.582;5.016;2022-09-23T18:10:16;12.25;;;11.05;;
20751;SDS011;10536;51.582;5.016;2022-09-23T18:15:18;14.75;;;11.15;;
20751;SDS011;10536;51.582;5.016;2022-09-23T18:20:19;17.90;;;14.13;;
20751;SDS011;10536;51.582;5.016;2022-09-23T18:25:22;14.68;;;12.27;;
20751;SDS011;10536;51.582;5.016;2022-09-23T18:30:23;16.20;;;13.75;;
20751;SDS011;10536;51.582;5.016;2022-09-23T18:35:24;20.92;;;17.02;;
20751;SDS011;10536;51.582;5.016;2022-09-23T18:40:24;19.95;;;17.33;;
20751;SDS011;10536;51.582;5.016;2022-09-23T18:45:25;24.63;;;18.17;;
20751;SDS011;10536;51.582;5.016;2022-09-23T18:50:25;24.47;;;18.27;;
20751;SDS011;10536;51.582;5.016;2022-09-23T18:55:43;30.10;;;22.55;;
20751;SDS011;10536;51.582;5.016;2022-09-23T19:00:43;28.58;;;23.60;;
20751;SDS011;10536;51.582;5.016;2022-09-23T19:05:43;29.48;;;21.88;;
20751;SDS011;10536;51.582;5.016;2022-09-23T19:10:44;32.72;;;23.50;;
20751;SDS011;10536;51.582;5.016;2022-09-23T19:15:54;28.23;;;23.80;;
20751;SDS011;10536;51.582;5.016;2022-09-23T19:21:00;36.88;;;27.77;;
20751;SDS011;10536;51.582;5.016;2022-09-23T19:26:01;35.00;;;26.53;;
20751;SDS011;10536;51.582;5.016;2022-09-23T19:31:16;35.10;;;25.17;;
20751;SDS011;10536;51.582;5.016;2022-09-23T19:36:21;35.25;;;25.77;;
20751;SDS011;10536;51.582;5.016;2022-09-23T19:41:24;34.08;;;27.48;;
20751;SDS011;10536;51.582;5.016;2022-09-23T19:46:25;47.08;;;35.05;;
20751;SDS011;10536;51.582;5.016;2022-09-23T19:51:26;48.20;;;37.45;;
20751;SDS011;10536;51.582;5.016;2022-09-23T19:56:27;49.13;;;36.25;;
20751;SDS011;10536;51.582;5.016;2022-09-23T20:01:29;47.30;;;32.40;;
20751;SDS011;10536;51.582;5.016;2022-09-23T20:06:31;42.35;;;31.25;;
20751;SDS011;10536;51.582;5.016;2022-09-23T20:11:33;42.65;;;32.78;;
20751;SDS011;10536;51.582;5.016;2022-09-23T20:16:34;47.17;;;31.50;;
20751;SDS011;10536;51.582;5.016;2022-09-23T20:21:36;46.40;;;33.33;;
20751;SDS011;10536;51.582;5.016;2022-09-23T20:26:36;34.90;;;28.15;;
20751;SDS011;10536;51.582;5.016;2022-09-23T20:31:58;39.50;;;27.20;;
20751;SDS011;10536;51.582;5.016;2022-09-23T20:36:59;32.53;;;25.08;;
20751;SDS011;10536;51.582;5.016;2022-09-23T20:42:00;35.67;;;26.05;;
20751;SDS011;10536;51.582;5.016;2022-09-23T20:47:06;35.40;;;25.58;;
20751;SDS011;10536;51.582;5.016;2022-09-23T20:52:11;31.42;;;24.83;;
20751;SDS011;10536;51.582;5.016;2022-09-23T20:57:13;36.40;;;24.65;;
20751;SDS011;10536;51.582;5.016;2022-09-23T21:02:15;33.47;;;23.77;;
20751;SDS011;10536;51.582;5.016;2022-09-23T21:07:15;29.77;;;23.17;;
20751;SDS011;10536;51.582;5.016;2022-09-23T21:12:16;32.17;;;24.50;;
20751;SDS011;10536;51.582;5.016;2022-09-23T21:17:17;35.67;;;24.13;;
20751;SDS011;10536;51.582;5.016;2022-09-23T21:22:18;37.67;;;24.10;;
20751;SDS011;10536;51.582;5.016;2022-09-23T21:27:18;30.98;;;22.70;;
20751;SDS011;10536;51.582;5.016;2022-09-23T21:32:18;29.83;;;23.77;;
20751;SDS011;10536;51.582;5.016;2022-09-23T21:37:20;32.42;;;24.70;;
20751;SDS011;10536;51.582;5.016;2022-09-23T21:42:21;30.92;;;24.65;;
20751;SDS011;10536;51.582;5.016;2022-09-23T21:47:23;38.17;;;25.80;;
20751;SDS011;10536;51.582;5.016;2022-09-23T21:52:25;36.72;;;26.92;;
20751;SDS011;10536;51.582;5.016;2022-09-23T21:57:31;38.20;;;26.60;;
20751;SDS011;10536;51.582;5.016;2022-09-23T22:02:31;41.35;;;27.58;;
20751;SDS011;10536;51.582;5.016;2022-09-23T22:07:35;40.85;;;29.02;;
20751;SDS011;10536;51.582;5.016;2022-09-23T22:12:37;39.38;;;28.08;;
20751;SDS011;10536;51.582;5.016;2022-09-23T22:17:37;38.10;;;28.00;;
20751;SDS011;10536;51.582;5.016;2022-09-23T22:22:38;42.28;;;29.27;;
20751;SDS011;10536;51.582;5.016;2022-09-23T22:27:38;46.70;;;29.98;;
20751;SDS011;10536;51.582;5.016;2022-09-23T22:32:58;42.97;;;29.88;;
20751;SDS011;10536;51.582;5.016;2022-09-23T22:38:06;48.38;;;33.03;;
20751;SDS011;10536;51.582;5.016;2022-09-23T22:43:06;44.13;;;31.23;;
20751;SDS011;10536;51.582;5.016;2022-09-23T22:48:11;51.67;;;34.03;;
20751;SDS011;10536;51.582;5.016;2022-09-23T22:53:12;49.55;;;34.25;;
20751;SDS011;10536;51.582;5.016;2022-09-23T22:58:13;49.22;;;34.05;;
20751;SDS011;10536;51.582;5.016;2022-09-23T23:03:13;48.30;;;32.10;;
20751;SDS011;10536;51.582;5.016;2022-09-23T23:08:19;45.90;;;30.83;;
20751;SDS011;10536;51.582;5.016;2022-09-23T23:13:21;42.80;;;30.40;;
20751;SDS011;10536;51.582;5.016;2022-09-23T23:18:22;39.60;;;29.42;;
20751;SDS011;10536;51.582;5.016;2022-09-23T23:23:23;43.15;;;29.70;;
20751;SDS011;10536;51.582;5.016;2022-09-23T23:28:24;36.67;;;28.50;;
20751;SDS011;10536;51.582;5.016;2022-09-23T23:33:24;39.65;;;29.00;;
20751;SDS011;10536;51.582;5.016;2022-09-23T23:38:25;47.53;;;32.07;;
20751;SDS011;10536;51.582;5.016;2022-09-23T23:43:25;55.13;;;36.70;;
20751;SDS011;10536;51.582;5.016;2022-09-23T23:48:26;48.38;;;34.00;;
20751;SDS011;10536;51.582;5.016;2022-09-23T23:53:28;51.58;;;33.30;;
20751;SDS011;10536;51.582;5.016;2022-09-23T23:58:30;42.95;;;30.25;;
